<?xml version="1.0" encoding="UTF-8" standalone="no" ?>
<gpx xmlns="http://www.topografix.com/GPX/1/1" xmlns:xsi="http://www.w3.org/2001/XMLSchema-instance" xsi:schemaLocation="http://www.topografix.com/GPX/1/1 http://www.topografix.com/GPX/1/1/gpx.xsd" version="1.1" creator="VisuGPX - https://www.visugpx.com">
  <metadata>
    <name>carsac</name>
    <desc><![CDATA[boucle de carsac terrain mixte sans difficulté]]></desc>
  </metadata>
  <trk>
    <name><![CDATA[20120417carsacgurcon]]></name>
    <trkseg>
      <trkpt lat="44.94643" lon="0.0911">
        <ele>97.71</ele>
        <time>2012-04-17T12:06:25Z</time>
      </trkpt>
      <trkpt lat="44.9464" lon="0.0913">
        <ele>97.23</ele>
        <time>2012-04-17T12:06:37Z</time>
      </trkpt>
      <trkpt lat="44.94639" lon="0.09138">
        <ele>97.71</ele>
        <time>2012-04-17T12:06:47Z</time>
      </trkpt>
      <trkpt lat="44.94632" lon="0.09142">
        <ele>98.19</ele>
        <time>2012-04-17T12:06:55Z</time>
      </trkpt>
      <trkpt lat="44.94627" lon="0.09144">
        <ele>97.23</ele>
        <time>2012-04-17T12:07:00Z</time>
      </trkpt>
      <trkpt lat="44.94613" lon="0.09152">
        <ele>96.27</ele>
        <time>2012-04-17T12:07:15Z</time>
      </trkpt>
      <trkpt lat="44.94597" lon="0.09174">
        <ele>95.79</ele>
        <time>2012-04-17T12:07:31Z</time>
      </trkpt>
      <trkpt lat="44.94587" lon="0.09187">
        <ele>94.35</ele>
        <time>2012-04-17T12:07:42Z</time>
      </trkpt>
      <trkpt lat="44.9458" lon="0.09195">
        <ele>93.87</ele>
        <time>2012-04-17T12:07:49Z</time>
      </trkpt>
      <trkpt lat="44.94578" lon="0.09205">
        <ele>93.39</ele>
        <time>2012-04-17T12:07:57Z</time>
      </trkpt>
      <trkpt lat="44.9457" lon="0.09223">
        <ele>92.42</ele>
        <time>2012-04-17T12:08:09Z</time>
      </trkpt>
      <trkpt lat="44.9456" lon="0.09243">
        <ele>90.98</ele>
        <time>2012-04-17T12:08:22Z</time>
      </trkpt>
      <trkpt lat="44.94551" lon="0.09263">
        <ele>88.1</ele>
        <time>2012-04-17T12:08:33Z</time>
      </trkpt>
      <trkpt lat="44.94539" lon="0.09284">
        <ele>86.66</ele>
        <time>2012-04-17T12:08:46Z</time>
      </trkpt>
      <trkpt lat="44.9453" lon="0.09301">
        <ele>84.73</ele>
        <time>2012-04-17T12:08:58Z</time>
      </trkpt>
      <trkpt lat="44.94522" lon="0.09313">
        <ele>83.77</ele>
        <time>2012-04-17T12:09:10Z</time>
      </trkpt>
      <trkpt lat="44.94512" lon="0.09326">
        <ele>83.29</ele>
        <time>2012-04-17T12:09:22Z</time>
      </trkpt>
      <trkpt lat="44.94506" lon="0.09335">
        <ele>82.33</ele>
        <time>2012-04-17T12:09:28Z</time>
      </trkpt>
      <trkpt lat="44.94507" lon="0.0935">
        <ele>82.33</ele>
        <time>2012-04-17T12:09:40Z</time>
      </trkpt>
      <trkpt lat="44.94512" lon="0.09366">
        <ele>81.85</ele>
        <time>2012-04-17T12:09:51Z</time>
      </trkpt>
      <trkpt lat="44.94513" lon="0.09391">
        <ele>82.33</ele>
        <time>2012-04-17T12:10:03Z</time>
      </trkpt>
      <trkpt lat="44.9451" lon="0.09418">
        <ele>82.33</ele>
        <time>2012-04-17T12:10:16Z</time>
      </trkpt>
      <trkpt lat="44.94509" lon="0.09438">
        <ele>82.81</ele>
        <time>2012-04-17T12:10:28Z</time>
      </trkpt>
      <trkpt lat="44.94507" lon="0.09459">
        <ele>82.81</ele>
        <time>2012-04-17T12:10:41Z</time>
      </trkpt>
      <trkpt lat="44.94504" lon="0.09485">
        <ele>81.85</ele>
        <time>2012-04-17T12:10:56Z</time>
      </trkpt>
      <trkpt lat="44.945" lon="0.09499">
        <ele>80.89</ele>
        <time>2012-04-17T12:11:03Z</time>
      </trkpt>
      <trkpt lat="44.94488" lon="0.09524">
        <ele>78.97</ele>
        <time>2012-04-17T12:11:16Z</time>
      </trkpt>
      <trkpt lat="44.94477" lon="0.09541">
        <ele>77.52</ele>
        <time>2012-04-17T12:11:29Z</time>
      </trkpt>
      <trkpt lat="44.94461" lon="0.09562">
        <ele>76.08</ele>
        <time>2012-04-17T12:11:43Z</time>
      </trkpt>
      <trkpt lat="44.94451" lon="0.09577">
        <ele>74.64</ele>
        <time>2012-04-17T12:11:54Z</time>
      </trkpt>
      <trkpt lat="44.94439" lon="0.09591">
        <ele>73.68</ele>
        <time>2012-04-17T12:12:05Z</time>
      </trkpt>
      <trkpt lat="44.94432" lon="0.09602">
        <ele>72.72</ele>
        <time>2012-04-17T12:12:14Z</time>
      </trkpt>
      <trkpt lat="44.94416" lon="0.09632">
        <ele>70.31</ele>
        <time>2012-04-17T12:12:32Z</time>
      </trkpt>
      <trkpt lat="44.94408" lon="0.09649">
        <ele>69.35</ele>
        <time>2012-04-17T12:12:43Z</time>
      </trkpt>
      <trkpt lat="44.94401" lon="0.09664">
        <ele>68.87</ele>
        <time>2012-04-17T12:12:53Z</time>
      </trkpt>
      <trkpt lat="44.94396" lon="0.09679">
        <ele>67.91</ele>
        <time>2012-04-17T12:13:03Z</time>
      </trkpt>
      <trkpt lat="44.94388" lon="0.09699">
        <ele>66.47</ele>
        <time>2012-04-17T12:13:16Z</time>
      </trkpt>
      <trkpt lat="44.9438" lon="0.09716">
        <ele>65.99</ele>
        <time>2012-04-17T12:13:28Z</time>
      </trkpt>
      <trkpt lat="44.94376" lon="0.09723">
        <ele>65.99</ele>
        <time>2012-04-17T12:13:32Z</time>
      </trkpt>
      <trkpt lat="44.94377" lon="0.09733">
        <ele>65.99</ele>
        <time>2012-04-17T12:13:41Z</time>
      </trkpt>
      <trkpt lat="44.94385" lon="0.0975">
        <ele>65.99</ele>
        <time>2012-04-17T12:13:53Z</time>
      </trkpt>
      <trkpt lat="44.94393" lon="0.09769">
        <ele>65.51</ele>
        <time>2012-04-17T12:14:05Z</time>
      </trkpt>
      <trkpt lat="44.94401" lon="0.09787">
        <ele>64.55</ele>
        <time>2012-04-17T12:14:17Z</time>
      </trkpt>
      <trkpt lat="44.94409" lon="0.09805">
        <ele>64.55</ele>
        <time>2012-04-17T12:14:29Z</time>
      </trkpt>
      <trkpt lat="44.94417" lon="0.0982">
        <ele>64.07</ele>
        <time>2012-04-17T12:14:40Z</time>
      </trkpt>
      <trkpt lat="44.94423" lon="0.09835">
        <ele>64.07</ele>
        <time>2012-04-17T12:14:49Z</time>
      </trkpt>
      <trkpt lat="44.94433" lon="0.09857">
        <ele>63.58</ele>
        <time>2012-04-17T12:15:02Z</time>
      </trkpt>
      <trkpt lat="44.94442" lon="0.09874">
        <ele>63.58</ele>
        <time>2012-04-17T12:15:13Z</time>
      </trkpt>
      <trkpt lat="44.94448" lon="0.09891">
        <ele>63.1</ele>
        <time>2012-04-17T12:15:25Z</time>
      </trkpt>
      <trkpt lat="44.94455" lon="0.09905">
        <ele>63.1</ele>
        <time>2012-04-17T12:15:36Z</time>
      </trkpt>
      <trkpt lat="44.94462" lon="0.09928">
        <ele>63.1</ele>
        <time>2012-04-17T12:15:48Z</time>
      </trkpt>
      <trkpt lat="44.94465" lon="0.09954">
        <ele>63.1</ele>
        <time>2012-04-17T12:16:02Z</time>
      </trkpt>
      <trkpt lat="44.94467" lon="0.09977">
        <ele>62.62</ele>
        <time>2012-04-17T12:16:12Z</time>
      </trkpt>
      <trkpt lat="44.94469" lon="0.10004">
        <ele>62.62</ele>
        <time>2012-04-17T12:16:25Z</time>
      </trkpt>
      <trkpt lat="44.94472" lon="0.10028">
        <ele>62.62</ele>
        <time>2012-04-17T12:16:38Z</time>
      </trkpt>
      <trkpt lat="44.94476" lon="0.10053">
        <ele>62.62</ele>
        <time>2012-04-17T12:16:52Z</time>
      </trkpt>
      <trkpt lat="44.9448" lon="0.1007">
        <ele>62.62</ele>
        <time>2012-04-17T12:17:03Z</time>
      </trkpt>
      <trkpt lat="44.94482" lon="0.10092">
        <ele>63.1</ele>
        <time>2012-04-17T12:17:16Z</time>
      </trkpt>
      <trkpt lat="44.94486" lon="0.10112">
        <ele>63.58</ele>
        <time>2012-04-17T12:17:28Z</time>
      </trkpt>
      <trkpt lat="44.94489" lon="0.10131">
        <ele>64.55</ele>
        <time>2012-04-17T12:17:39Z</time>
      </trkpt>
      <trkpt lat="44.94495" lon="0.10155">
        <ele>64.55</ele>
        <time>2012-04-17T12:17:52Z</time>
      </trkpt>
      <trkpt lat="44.94501" lon="0.10177">
        <ele>64.55</ele>
        <time>2012-04-17T12:18:04Z</time>
      </trkpt>
      <trkpt lat="44.9451" lon="0.10198">
        <ele>65.51</ele>
        <time>2012-04-17T12:18:17Z</time>
      </trkpt>
      <trkpt lat="44.94514" lon="0.10214">
        <ele>66.47</ele>
        <time>2012-04-17T12:18:28Z</time>
      </trkpt>
      <trkpt lat="44.94518" lon="0.10227">
        <ele>67.43</ele>
        <time>2012-04-17T12:18:38Z</time>
      </trkpt>
      <trkpt lat="44.94521" lon="0.10233">
        <ele>67.43</ele>
        <time>2012-04-17T12:18:43Z</time>
      </trkpt>
      <trkpt lat="44.94524" lon="0.10245">
        <ele>67.43</ele>
        <time>2012-04-17T12:18:50Z</time>
      </trkpt>
      <trkpt lat="44.9453" lon="0.10266">
        <ele>68.87</ele>
        <time>2012-04-17T12:19:05Z</time>
      </trkpt>
      <trkpt lat="44.94536" lon="0.10289">
        <ele>69.83</ele>
        <time>2012-04-17T12:19:18Z</time>
      </trkpt>
      <trkpt lat="44.94541" lon="0.10307">
        <ele>70.79</ele>
        <time>2012-04-17T12:19:29Z</time>
      </trkpt>
      <trkpt lat="44.94549" lon="0.10328">
        <ele>71.27</ele>
        <time>2012-04-17T12:19:41Z</time>
      </trkpt>
      <trkpt lat="44.94563" lon="0.1035">
        <ele>72.24</ele>
        <time>2012-04-17T12:19:56Z</time>
      </trkpt>
      <trkpt lat="44.94577" lon="0.10368">
        <ele>73.2</ele>
        <time>2012-04-17T12:20:10Z</time>
      </trkpt>
      <trkpt lat="44.94591" lon="0.10381">
        <ele>73.68</ele>
        <time>2012-04-17T12:20:23Z</time>
      </trkpt>
      <trkpt lat="44.94607" lon="0.10382">
        <ele>74.64</ele>
        <time>2012-04-17T12:20:35Z</time>
      </trkpt>
      <trkpt lat="44.94622" lon="0.10371">
        <ele>75.6</ele>
        <time>2012-04-17T12:20:48Z</time>
      </trkpt>
      <trkpt lat="44.94629" lon="0.1037">
        <ele>77.04</ele>
        <time>2012-04-17T12:23:53Z</time>
      </trkpt>
      <trkpt lat="44.94634" lon="0.10373">
        <ele>76.56</ele>
        <time>2012-04-17T12:24:07Z</time>
      </trkpt>
      <trkpt lat="44.94641" lon="0.10379">
        <ele>76.56</ele>
        <time>2012-04-17T12:24:16Z</time>
      </trkpt>
      <trkpt lat="44.94654" lon="0.10387">
        <ele>75.6</ele>
        <time>2012-04-17T12:24:27Z</time>
      </trkpt>
      <trkpt lat="44.94666" lon="0.10392">
        <ele>75.12</ele>
        <time>2012-04-17T12:24:38Z</time>
      </trkpt>
      <trkpt lat="44.94674" lon="0.10396">
        <ele>74.64</ele>
        <time>2012-04-17T12:25:00Z</time>
      </trkpt>
      <trkpt lat="44.94686" lon="0.10405">
        <ele>74.16</ele>
        <time>2012-04-17T12:25:11Z</time>
      </trkpt>
      <trkpt lat="44.947" lon="0.10416">
        <ele>74.16</ele>
        <time>2012-04-17T12:25:25Z</time>
      </trkpt>
      <trkpt lat="44.94714" lon="0.10431">
        <ele>73.68</ele>
        <time>2012-04-17T12:25:38Z</time>
      </trkpt>
      <trkpt lat="44.94719" lon="0.10436">
        <ele>74.16</ele>
        <time>2012-04-17T12:25:43Z</time>
      </trkpt>
      <trkpt lat="44.94728" lon="0.10446">
        <ele>74.16</ele>
        <time>2012-04-17T12:25:55Z</time>
      </trkpt>
      <trkpt lat="44.94737" lon="0.10457">
        <ele>73.68</ele>
        <time>2012-04-17T12:26:07Z</time>
      </trkpt>
      <trkpt lat="44.94748" lon="0.10463">
        <ele>72.72</ele>
        <time>2012-04-17T12:26:18Z</time>
      </trkpt>
      <trkpt lat="44.94755" lon="0.10461">
        <ele>72.24</ele>
        <time>2012-04-17T12:26:32Z</time>
      </trkpt>
      <trkpt lat="44.94767" lon="0.1046">
        <ele>70.31</ele>
        <time>2012-04-17T12:26:58Z</time>
      </trkpt>
      <trkpt lat="44.94781" lon="0.10454">
        <ele>69.35</ele>
        <time>2012-04-17T12:27:09Z</time>
      </trkpt>
      <trkpt lat="44.94789" lon="0.10454">
        <ele>69.35</ele>
        <time>2012-04-17T12:27:13Z</time>
      </trkpt>
      <trkpt lat="44.94809" lon="0.1045">
        <ele>68.87</ele>
        <time>2012-04-17T12:27:23Z</time>
      </trkpt>
      <trkpt lat="44.94814" lon="0.10447">
        <ele>68.39</ele>
        <time>2012-04-17T12:27:26Z</time>
      </trkpt>
      <trkpt lat="44.94824" lon="0.10445">
        <ele>68.87</ele>
        <time>2012-04-17T12:27:35Z</time>
      </trkpt>
      <trkpt lat="44.94836" lon="0.10443">
        <ele>68.39</ele>
        <time>2012-04-17T12:27:44Z</time>
      </trkpt>
      <trkpt lat="44.94851" lon="0.10442">
        <ele>68.39</ele>
        <time>2012-04-17T12:27:58Z</time>
      </trkpt>
      <trkpt lat="44.94862" lon="0.10436">
        <ele>68.39</ele>
        <time>2012-04-17T12:28:06Z</time>
      </trkpt>
      <trkpt lat="44.94874" lon="0.10431">
        <ele>67.91</ele>
        <time>2012-04-17T12:28:17Z</time>
      </trkpt>
      <trkpt lat="44.9489" lon="0.10432">
        <ele>67.91</ele>
        <time>2012-04-17T12:28:26Z</time>
      </trkpt>
      <trkpt lat="44.94904" lon="0.10429">
        <ele>67.43</ele>
        <time>2012-04-17T12:28:35Z</time>
      </trkpt>
      <trkpt lat="44.94912" lon="0.10428">
        <ele>67.43</ele>
        <time>2012-04-17T12:28:41Z</time>
      </trkpt>
      <trkpt lat="44.94926" lon="0.10434">
        <ele>67.43</ele>
        <time>2012-04-17T12:28:50Z</time>
      </trkpt>
      <trkpt lat="44.94942" lon="0.10445">
        <ele>67.43</ele>
        <time>2012-04-17T12:29:02Z</time>
      </trkpt>
      <trkpt lat="44.94953" lon="0.10457">
        <ele>67.43</ele>
        <time>2012-04-17T12:29:14Z</time>
      </trkpt>
      <trkpt lat="44.94967" lon="0.10471">
        <ele>67.43</ele>
        <time>2012-04-17T12:29:25Z</time>
      </trkpt>
      <trkpt lat="44.94978" lon="0.10484">
        <ele>67.91</ele>
        <time>2012-04-17T12:29:38Z</time>
      </trkpt>
      <trkpt lat="44.94992" lon="0.10501">
        <ele>68.39</ele>
        <time>2012-04-17T12:29:51Z</time>
      </trkpt>
      <trkpt lat="44.95007" lon="0.10516">
        <ele>69.35</ele>
        <time>2012-04-17T12:30:04Z</time>
      </trkpt>
      <trkpt lat="44.95021" lon="0.10532">
        <ele>70.31</ele>
        <time>2012-04-17T12:30:18Z</time>
      </trkpt>
      <trkpt lat="44.95035" lon="0.1055">
        <ele>71.27</ele>
        <time>2012-04-17T12:30:33Z</time>
      </trkpt>
      <trkpt lat="44.95041" lon="0.10555">
        <ele>72.24</ele>
        <time>2012-04-17T12:30:40Z</time>
      </trkpt>
      <trkpt lat="44.95057" lon="0.10565">
        <ele>74.16</ele>
        <time>2012-04-17T12:30:55Z</time>
      </trkpt>
      <trkpt lat="44.9507" lon="0.10572">
        <ele>75.12</ele>
        <time>2012-04-17T12:31:07Z</time>
      </trkpt>
      <trkpt lat="44.95083" lon="0.10579">
        <ele>76.08</ele>
        <time>2012-04-17T12:31:19Z</time>
      </trkpt>
      <trkpt lat="44.95093" lon="0.10582">
        <ele>76.56</ele>
        <time>2012-04-17T12:31:29Z</time>
      </trkpt>
      <trkpt lat="44.95099" lon="0.10588">
        <ele>77.04</ele>
        <time>2012-04-17T12:31:34Z</time>
      </trkpt>
      <trkpt lat="44.95106" lon="0.10594">
        <ele>77.04</ele>
        <time>2012-04-17T12:31:40Z</time>
      </trkpt>
      <trkpt lat="44.95116" lon="0.10603">
        <ele>77.52</ele>
        <time>2012-04-17T12:31:49Z</time>
      </trkpt>
      <trkpt lat="44.95127" lon="0.10608">
        <ele>76.56</ele>
        <time>2012-04-17T12:31:59Z</time>
      </trkpt>
      <trkpt lat="44.9514" lon="0.10619">
        <ele>76.56</ele>
        <time>2012-04-17T12:32:09Z</time>
      </trkpt>
      <trkpt lat="44.95155" lon="0.10623">
        <ele>76.56</ele>
        <time>2012-04-17T12:32:19Z</time>
      </trkpt>
      <trkpt lat="44.95168" lon="0.10627">
        <ele>77.04</ele>
        <time>2012-04-17T12:32:29Z</time>
      </trkpt>
      <trkpt lat="44.95182" lon="0.10632">
        <ele>76.56</ele>
        <time>2012-04-17T12:32:40Z</time>
      </trkpt>
      <trkpt lat="44.95192" lon="0.10634">
        <ele>77.04</ele>
        <time>2012-04-17T12:32:52Z</time>
      </trkpt>
      <trkpt lat="44.95189" lon="0.10646">
        <ele>78</ele>
        <time>2012-04-17T12:33:00Z</time>
      </trkpt>
      <trkpt lat="44.95185" lon="0.10669">
        <ele>78.48</ele>
        <time>2012-04-17T12:33:15Z</time>
      </trkpt>
      <trkpt lat="44.95184" lon="0.10682">
        <ele>78.97</ele>
        <time>2012-04-17T12:33:22Z</time>
      </trkpt>
      <trkpt lat="44.95176" lon="0.10695">
        <ele>79.45</ele>
        <time>2012-04-17T12:33:29Z</time>
      </trkpt>
      <trkpt lat="44.95173" lon="0.10701">
        <ele>79.93</ele>
        <time>2012-04-17T12:33:34Z</time>
      </trkpt>
      <trkpt lat="44.95165" lon="0.10711">
        <ele>80.41</ele>
        <time>2012-04-17T12:33:44Z</time>
      </trkpt>
      <trkpt lat="44.95163" lon="0.10724">
        <ele>81.85</ele>
        <time>2012-04-17T12:33:57Z</time>
      </trkpt>
      <trkpt lat="44.95166" lon="0.10736">
        <ele>81.85</ele>
        <time>2012-04-17T12:34:00Z</time>
      </trkpt>
      <trkpt lat="44.95179" lon="0.1073">
        <ele>82.33</ele>
        <time>2012-04-17T12:34:20Z</time>
      </trkpt>
      <trkpt lat="44.95189" lon="0.10744">
        <ele>81.37</ele>
        <time>2012-04-17T12:34:44Z</time>
      </trkpt>
      <trkpt lat="44.95203" lon="0.10749">
        <ele>82.33</ele>
        <time>2012-04-17T12:35:19Z</time>
      </trkpt>
      <trkpt lat="44.95211" lon="0.1074">
        <ele>81.37</ele>
        <time>2012-04-17T12:35:38Z</time>
      </trkpt>
      <trkpt lat="44.95219" lon="0.10729">
        <ele>81.37</ele>
        <time>2012-04-17T12:36:03Z</time>
      </trkpt>
      <trkpt lat="44.95229" lon="0.10716">
        <ele>80.89</ele>
        <time>2012-04-17T12:36:15Z</time>
      </trkpt>
      <trkpt lat="44.95235" lon="0.10709">
        <ele>80.41</ele>
        <time>2012-04-17T12:36:28Z</time>
      </trkpt>
      <trkpt lat="44.95244" lon="0.107">
        <ele>80.89</ele>
        <time>2012-04-17T12:36:38Z</time>
      </trkpt>
      <trkpt lat="44.95258" lon="0.10675">
        <ele>79.45</ele>
        <time>2012-04-17T12:36:51Z</time>
      </trkpt>
      <trkpt lat="44.95272" lon="0.10675">
        <ele>78</ele>
        <time>2012-04-17T12:37:01Z</time>
      </trkpt>
      <trkpt lat="44.95293" lon="0.10686">
        <ele>76.56</ele>
        <time>2012-04-17T12:37:14Z</time>
      </trkpt>
      <trkpt lat="44.953" lon="0.10693">
        <ele>76.08</ele>
        <time>2012-04-17T12:37:25Z</time>
      </trkpt>
      <trkpt lat="44.95307" lon="0.10697">
        <ele>76.08</ele>
        <time>2012-04-17T12:37:34Z</time>
      </trkpt>
      <trkpt lat="44.95317" lon="0.10708">
        <ele>75.6</ele>
        <time>2012-04-17T12:37:44Z</time>
      </trkpt>
      <trkpt lat="44.95331" lon="0.10712">
        <ele>74.64</ele>
        <time>2012-04-17T12:37:58Z</time>
      </trkpt>
      <trkpt lat="44.9534" lon="0.10723">
        <ele>74.16</ele>
        <time>2012-04-17T12:38:09Z</time>
      </trkpt>
      <trkpt lat="44.95347" lon="0.10729">
        <ele>73.68</ele>
        <time>2012-04-17T12:38:14Z</time>
      </trkpt>
      <trkpt lat="44.95353" lon="0.10735">
        <ele>73.68</ele>
        <time>2012-04-17T12:38:18Z</time>
      </trkpt>
      <trkpt lat="44.95357" lon="0.10742">
        <ele>73.2</ele>
        <time>2012-04-17T12:38:24Z</time>
      </trkpt>
      <trkpt lat="44.95363" lon="0.10751">
        <ele>72.24</ele>
        <time>2012-04-17T12:38:33Z</time>
      </trkpt>
      <trkpt lat="44.95372" lon="0.10757">
        <ele>72.24</ele>
        <time>2012-04-17T12:38:44Z</time>
      </trkpt>
      <trkpt lat="44.95389" lon="0.1077">
        <ele>71.76</ele>
        <time>2012-04-17T12:38:58Z</time>
      </trkpt>
      <trkpt lat="44.95405" lon="0.1078">
        <ele>70.79</ele>
        <time>2012-04-17T12:39:10Z</time>
      </trkpt>
      <trkpt lat="44.9542" lon="0.10786">
        <ele>69.35</ele>
        <time>2012-04-17T12:39:21Z</time>
      </trkpt>
      <trkpt lat="44.95434" lon="0.10791">
        <ele>68.87</ele>
        <time>2012-04-17T12:39:32Z</time>
      </trkpt>
      <trkpt lat="44.95441" lon="0.10793">
        <ele>68.87</ele>
        <time>2012-04-17T12:39:37Z</time>
      </trkpt>
      <trkpt lat="44.95455" lon="0.10796">
        <ele>68.39</ele>
        <time>2012-04-17T12:39:46Z</time>
      </trkpt>
      <trkpt lat="44.95474" lon="0.10805">
        <ele>67.43</ele>
        <time>2012-04-17T12:39:59Z</time>
      </trkpt>
      <trkpt lat="44.9549" lon="0.10815">
        <ele>66.95</ele>
        <time>2012-04-17T12:40:11Z</time>
      </trkpt>
      <trkpt lat="44.95503" lon="0.10827">
        <ele>65.99</ele>
        <time>2012-04-17T12:40:22Z</time>
      </trkpt>
      <trkpt lat="44.95518" lon="0.10842">
        <ele>64.55</ele>
        <time>2012-04-17T12:40:37Z</time>
      </trkpt>
      <trkpt lat="44.95529" lon="0.10857">
        <ele>63.1</ele>
        <time>2012-04-17T12:40:49Z</time>
      </trkpt>
      <trkpt lat="44.95531" lon="0.10863">
        <ele>63.1</ele>
        <time>2012-04-17T12:40:54Z</time>
      </trkpt>
      <trkpt lat="44.95538" lon="0.10866">
        <ele>62.62</ele>
        <time>2012-04-17T12:41:00Z</time>
      </trkpt>
      <trkpt lat="44.95549" lon="0.10874">
        <ele>61.66</ele>
        <time>2012-04-17T12:41:07Z</time>
      </trkpt>
      <trkpt lat="44.95563" lon="0.10891">
        <ele>60.7</ele>
        <time>2012-04-17T12:41:21Z</time>
      </trkpt>
      <trkpt lat="44.95566" lon="0.10896">
        <ele>60.7</ele>
        <time>2012-04-17T12:41:25Z</time>
      </trkpt>
      <trkpt lat="44.95573" lon="0.10915">
        <ele>59.74</ele>
        <time>2012-04-17T12:41:39Z</time>
      </trkpt>
      <trkpt lat="44.9558" lon="0.10919">
        <ele>59.26</ele>
        <time>2012-04-17T12:41:46Z</time>
      </trkpt>
      <trkpt lat="44.95597" lon="0.10928">
        <ele>59.26</ele>
        <time>2012-04-17T12:42:01Z</time>
      </trkpt>
      <trkpt lat="44.95614" lon="0.10941">
        <ele>58.78</ele>
        <time>2012-04-17T12:42:15Z</time>
      </trkpt>
      <trkpt lat="44.95621" lon="0.10949">
        <ele>58.78</ele>
        <time>2012-04-17T12:42:25Z</time>
      </trkpt>
      <trkpt lat="44.95629" lon="0.10958">
        <ele>58.3</ele>
        <time>2012-04-17T12:42:40Z</time>
      </trkpt>
      <trkpt lat="44.95645" lon="0.10971">
        <ele>58.78</ele>
        <time>2012-04-17T12:42:58Z</time>
      </trkpt>
      <trkpt lat="44.9565" lon="0.10977">
        <ele>59.26</ele>
        <time>2012-04-17T12:43:04Z</time>
      </trkpt>
      <trkpt lat="44.95666" lon="0.10988">
        <ele>59.26</ele>
        <time>2012-04-17T12:43:18Z</time>
      </trkpt>
      <trkpt lat="44.95674" lon="0.10994">
        <ele>58.78</ele>
        <time>2012-04-17T12:43:27Z</time>
      </trkpt>
      <trkpt lat="44.95682" lon="0.11004">
        <ele>59.26</ele>
        <time>2012-04-17T12:43:38Z</time>
      </trkpt>
      <trkpt lat="44.95686" lon="0.11012">
        <ele>59.26</ele>
        <time>2012-04-17T12:43:43Z</time>
      </trkpt>
      <trkpt lat="44.95696" lon="0.11031">
        <ele>59.74</ele>
        <time>2012-04-17T12:43:55Z</time>
      </trkpt>
      <trkpt lat="44.95709" lon="0.11052">
        <ele>60.7</ele>
        <time>2012-04-17T12:44:08Z</time>
      </trkpt>
      <trkpt lat="44.95718" lon="0.11073">
        <ele>62.62</ele>
        <time>2012-04-17T12:44:22Z</time>
      </trkpt>
      <trkpt lat="44.9573" lon="0.11093">
        <ele>63.1</ele>
        <time>2012-04-17T12:44:35Z</time>
      </trkpt>
      <trkpt lat="44.95737" lon="0.11111">
        <ele>64.07</ele>
        <time>2012-04-17T12:44:46Z</time>
      </trkpt>
      <trkpt lat="44.95745" lon="0.11129">
        <ele>64.55</ele>
        <time>2012-04-17T12:44:57Z</time>
      </trkpt>
      <trkpt lat="44.95753" lon="0.11139">
        <ele>65.03</ele>
        <time>2012-04-17T12:45:05Z</time>
      </trkpt>
      <trkpt lat="44.95757" lon="0.11146">
        <ele>65.51</ele>
        <time>2012-04-17T12:45:10Z</time>
      </trkpt>
      <trkpt lat="44.95771" lon="0.11163">
        <ele>65.99</ele>
        <time>2012-04-17T12:45:23Z</time>
      </trkpt>
      <trkpt lat="44.95785" lon="0.11176">
        <ele>65.99</ele>
        <time>2012-04-17T12:45:37Z</time>
      </trkpt>
      <trkpt lat="44.95801" lon="0.11187">
        <ele>65.99</ele>
        <time>2012-04-17T12:45:51Z</time>
      </trkpt>
      <trkpt lat="44.95814" lon="0.1119">
        <ele>66.47</ele>
        <time>2012-04-17T12:46:03Z</time>
      </trkpt>
      <trkpt lat="44.95833" lon="0.11197">
        <ele>66.47</ele>
        <time>2012-04-17T12:46:19Z</time>
      </trkpt>
      <trkpt lat="44.95848" lon="0.11205">
        <ele>67.43</ele>
        <time>2012-04-17T12:46:32Z</time>
      </trkpt>
      <trkpt lat="44.9586" lon="0.11211">
        <ele>66.95</ele>
        <time>2012-04-17T12:46:45Z</time>
      </trkpt>
      <trkpt lat="44.95867" lon="0.11215">
        <ele>67.43</ele>
        <time>2012-04-17T12:46:54Z</time>
      </trkpt>
      <trkpt lat="44.95872" lon="0.11219">
        <ele>67.43</ele>
        <time>2012-04-17T12:47:03Z</time>
      </trkpt>
      <trkpt lat="44.95878" lon="0.11223">
        <ele>67.43</ele>
        <time>2012-04-17T12:47:12Z</time>
      </trkpt>
      <trkpt lat="44.95892" lon="0.1123">
        <ele>67.43</ele>
        <time>2012-04-17T12:47:27Z</time>
      </trkpt>
      <trkpt lat="44.95901" lon="0.11234">
        <ele>68.39</ele>
        <time>2012-04-17T12:47:38Z</time>
      </trkpt>
      <trkpt lat="44.95908" lon="0.1124">
        <ele>68.39</ele>
        <time>2012-04-17T12:47:47Z</time>
      </trkpt>
      <trkpt lat="44.95915" lon="0.11243">
        <ele>68.39</ele>
        <time>2012-04-17T12:47:57Z</time>
      </trkpt>
      <trkpt lat="44.95921" lon="0.11245">
        <ele>68.39</ele>
        <time>2012-04-17T12:48:08Z</time>
      </trkpt>
      <trkpt lat="44.95935" lon="0.11252">
        <ele>68.39</ele>
        <time>2012-04-17T12:48:19Z</time>
      </trkpt>
      <trkpt lat="44.95953" lon="0.11266">
        <ele>68.87</ele>
        <time>2012-04-17T12:48:30Z</time>
      </trkpt>
      <trkpt lat="44.95966" lon="0.11276">
        <ele>68.87</ele>
        <time>2012-04-17T12:48:41Z</time>
      </trkpt>
      <trkpt lat="44.9598" lon="0.11287">
        <ele>68.87</ele>
        <time>2012-04-17T12:48:53Z</time>
      </trkpt>
      <trkpt lat="44.95994" lon="0.113">
        <ele>68.87</ele>
        <time>2012-04-17T12:49:07Z</time>
      </trkpt>
      <trkpt lat="44.96001" lon="0.11305">
        <ele>69.83</ele>
        <time>2012-04-17T12:49:14Z</time>
      </trkpt>
      <trkpt lat="44.96012" lon="0.11312">
        <ele>69.83</ele>
        <time>2012-04-17T12:49:24Z</time>
      </trkpt>
      <trkpt lat="44.96023" lon="0.11316">
        <ele>70.31</ele>
        <time>2012-04-17T12:49:35Z</time>
      </trkpt>
      <trkpt lat="44.96039" lon="0.11321">
        <ele>71.27</ele>
        <time>2012-04-17T12:49:49Z</time>
      </trkpt>
      <trkpt lat="44.96051" lon="0.11325">
        <ele>71.27</ele>
        <time>2012-04-17T12:50:00Z</time>
      </trkpt>
      <trkpt lat="44.96068" lon="0.1133">
        <ele>71.27</ele>
        <time>2012-04-17T12:50:14Z</time>
      </trkpt>
      <trkpt lat="44.96081" lon="0.11335">
        <ele>71.76</ele>
        <time>2012-04-17T12:50:26Z</time>
      </trkpt>
      <trkpt lat="44.96087" lon="0.11337">
        <ele>72.24</ele>
        <time>2012-04-17T12:50:31Z</time>
      </trkpt>
      <trkpt lat="44.96101" lon="0.11342">
        <ele>73.2</ele>
        <time>2012-04-17T12:50:44Z</time>
      </trkpt>
      <trkpt lat="44.96116" lon="0.11347">
        <ele>73.68</ele>
        <time>2012-04-17T12:50:57Z</time>
      </trkpt>
      <trkpt lat="44.96122" lon="0.11352">
        <ele>74.16</ele>
        <time>2012-04-17T12:51:04Z</time>
      </trkpt>
      <trkpt lat="44.9613" lon="0.11358">
        <ele>75.12</ele>
        <time>2012-04-17T12:51:13Z</time>
      </trkpt>
      <trkpt lat="44.96143" lon="0.11363">
        <ele>75.6</ele>
        <time>2012-04-17T12:51:25Z</time>
      </trkpt>
      <trkpt lat="44.96155" lon="0.11365">
        <ele>76.08</ele>
        <time>2012-04-17T12:51:37Z</time>
      </trkpt>
      <trkpt lat="44.96168" lon="0.11368">
        <ele>77.04</ele>
        <time>2012-04-17T12:51:49Z</time>
      </trkpt>
      <trkpt lat="44.96181" lon="0.11371">
        <ele>78</ele>
        <time>2012-04-17T12:52:01Z</time>
      </trkpt>
      <trkpt lat="44.96191" lon="0.11373">
        <ele>78.48</ele>
        <time>2012-04-17T12:52:11Z</time>
      </trkpt>
      <trkpt lat="44.96207" lon="0.1138">
        <ele>79.45</ele>
        <time>2012-04-17T12:52:23Z</time>
      </trkpt>
      <trkpt lat="44.96212" lon="0.11384">
        <ele>80.41</ele>
        <time>2012-04-17T12:52:32Z</time>
      </trkpt>
      <trkpt lat="44.96228" lon="0.11393">
        <ele>80.89</ele>
        <time>2012-04-17T12:52:56Z</time>
      </trkpt>
      <trkpt lat="44.96247" lon="0.11408">
        <ele>82.33</ele>
        <time>2012-04-17T12:53:12Z</time>
      </trkpt>
      <trkpt lat="44.9626" lon="0.11414">
        <ele>82.33</ele>
        <time>2012-04-17T12:53:24Z</time>
      </trkpt>
      <trkpt lat="44.96274" lon="0.11417">
        <ele>82.33</ele>
        <time>2012-04-17T12:53:39Z</time>
      </trkpt>
      <trkpt lat="44.9628" lon="0.11419">
        <ele>82.81</ele>
        <time>2012-04-17T12:53:49Z</time>
      </trkpt>
      <trkpt lat="44.96294" lon="0.11423">
        <ele>82.81</ele>
        <time>2012-04-17T12:54:01Z</time>
      </trkpt>
      <trkpt lat="44.96302" lon="0.11429">
        <ele>82.81</ele>
        <time>2012-04-17T12:54:10Z</time>
      </trkpt>
      <trkpt lat="44.96307" lon="0.11432">
        <ele>82.81</ele>
        <time>2012-04-17T12:54:20Z</time>
      </trkpt>
      <trkpt lat="44.96314" lon="0.11432">
        <ele>82.33</ele>
        <time>2012-04-17T12:54:30Z</time>
      </trkpt>
      <trkpt lat="44.96321" lon="0.11432">
        <ele>82.33</ele>
        <time>2012-04-17T12:54:42Z</time>
      </trkpt>
      <trkpt lat="44.96328" lon="0.11436">
        <ele>82.33</ele>
        <time>2012-04-17T12:54:48Z</time>
      </trkpt>
      <trkpt lat="44.96341" lon="0.11441">
        <ele>81.85</ele>
        <time>2012-04-17T12:54:58Z</time>
      </trkpt>
      <trkpt lat="44.96351" lon="0.11444">
        <ele>81.37</ele>
        <time>2012-04-17T12:55:08Z</time>
      </trkpt>
      <trkpt lat="44.96359" lon="0.11446">
        <ele>81.85</ele>
        <time>2012-04-17T12:55:19Z</time>
      </trkpt>
      <trkpt lat="44.96369" lon="0.11448">
        <ele>81.37</ele>
        <time>2012-04-17T12:55:28Z</time>
      </trkpt>
      <trkpt lat="44.96383" lon="0.11453">
        <ele>81.85</ele>
        <time>2012-04-17T12:55:41Z</time>
      </trkpt>
      <trkpt lat="44.96396" lon="0.11458">
        <ele>81.85</ele>
        <time>2012-04-17T12:55:50Z</time>
      </trkpt>
      <trkpt lat="44.96405" lon="0.11458">
        <ele>81.37</ele>
        <time>2012-04-17T12:56:00Z</time>
      </trkpt>
      <trkpt lat="44.9641" lon="0.11454">
        <ele>81.85</ele>
        <time>2012-04-17T12:56:10Z</time>
      </trkpt>
      <trkpt lat="44.96423" lon="0.11454">
        <ele>83.77</ele>
        <time>2012-04-17T12:56:30Z</time>
      </trkpt>
      <trkpt lat="44.96441" lon="0.11456">
        <ele>83.29</ele>
        <time>2012-04-17T12:56:41Z</time>
      </trkpt>
      <trkpt lat="44.96453" lon="0.11454">
        <ele>82.81</ele>
        <time>2012-04-17T12:56:48Z</time>
      </trkpt>
      <trkpt lat="44.96467" lon="0.11454">
        <ele>82.81</ele>
        <time>2012-04-17T12:56:59Z</time>
      </trkpt>
      <trkpt lat="44.96475" lon="0.11451">
        <ele>83.29</ele>
        <time>2012-04-17T12:58:05Z</time>
      </trkpt>
      <trkpt lat="44.96486" lon="0.11435">
        <ele>83.29</ele>
        <time>2012-04-17T12:58:17Z</time>
      </trkpt>
      <trkpt lat="44.96494" lon="0.11429">
        <ele>83.29</ele>
        <time>2012-04-17T12:58:25Z</time>
      </trkpt>
      <trkpt lat="44.96508" lon="0.11428">
        <ele>82.81</ele>
        <time>2012-04-17T12:58:34Z</time>
      </trkpt>
      <trkpt lat="44.96523" lon="0.11426">
        <ele>83.77</ele>
        <time>2012-04-17T12:58:53Z</time>
      </trkpt>
      <trkpt lat="44.96532" lon="0.11426">
        <ele>83.77</ele>
        <time>2012-04-17T12:59:00Z</time>
      </trkpt>
      <trkpt lat="44.96552" lon="0.11431">
        <ele>83.77</ele>
        <time>2012-04-17T12:59:09Z</time>
      </trkpt>
      <trkpt lat="44.96573" lon="0.11434">
        <ele>84.25</ele>
        <time>2012-04-17T12:59:21Z</time>
      </trkpt>
      <trkpt lat="44.96584" lon="0.11434">
        <ele>84.73</ele>
        <time>2012-04-17T12:59:31Z</time>
      </trkpt>
      <trkpt lat="44.96594" lon="0.11433">
        <ele>85.21</ele>
        <time>2012-04-17T12:59:41Z</time>
      </trkpt>
      <trkpt lat="44.9661" lon="0.11436">
        <ele>86.18</ele>
        <time>2012-04-17T12:59:54Z</time>
      </trkpt>
      <trkpt lat="44.96619" lon="0.11437">
        <ele>87.14</ele>
        <time>2012-04-17T13:00:02Z</time>
      </trkpt>
      <trkpt lat="44.96634" lon="0.11437">
        <ele>88.1</ele>
        <time>2012-04-17T13:00:11Z</time>
      </trkpt>
      <trkpt lat="44.96645" lon="0.11436">
        <ele>89.06</ele>
        <time>2012-04-17T13:00:22Z</time>
      </trkpt>
      <trkpt lat="44.96659" lon="0.11431">
        <ele>91.46</ele>
        <time>2012-04-17T13:00:40Z</time>
      </trkpt>
      <trkpt lat="44.96672" lon="0.11428">
        <ele>91.46</ele>
        <time>2012-04-17T13:00:50Z</time>
      </trkpt>
      <trkpt lat="44.9668" lon="0.11425">
        <ele>91.94</ele>
        <time>2012-04-17T13:00:56Z</time>
      </trkpt>
      <trkpt lat="44.96686" lon="0.11422">
        <ele>92.42</ele>
        <time>2012-04-17T13:01:05Z</time>
      </trkpt>
      <trkpt lat="44.96694" lon="0.11421">
        <ele>92.42</ele>
        <time>2012-04-17T13:01:08Z</time>
      </trkpt>
      <trkpt lat="44.96703" lon="0.11416">
        <ele>91.94</ele>
        <time>2012-04-17T13:01:18Z</time>
      </trkpt>
      <trkpt lat="44.96708" lon="0.11414">
        <ele>91.46</ele>
        <time>2012-04-17T13:01:33Z</time>
      </trkpt>
      <trkpt lat="44.96709" lon="0.11406">
        <ele>92.9</ele>
        <time>2012-04-17T13:02:36Z</time>
      </trkpt>
      <trkpt lat="44.96709" lon="0.11395">
        <ele>93.39</ele>
        <time>2012-04-17T13:02:43Z</time>
      </trkpt>
      <trkpt lat="44.9671" lon="0.11372">
        <ele>94.35</ele>
        <time>2012-04-17T13:02:56Z</time>
      </trkpt>
      <trkpt lat="44.96707" lon="0.11356">
        <ele>95.31</ele>
        <time>2012-04-17T13:03:07Z</time>
      </trkpt>
      <trkpt lat="44.96702" lon="0.11335">
        <ele>96.75</ele>
        <time>2012-04-17T13:03:21Z</time>
      </trkpt>
      <trkpt lat="44.96697" lon="0.11309">
        <ele>97.71</ele>
        <time>2012-04-17T13:03:37Z</time>
      </trkpt>
      <trkpt lat="44.96693" lon="0.11293">
        <ele>98.19</ele>
        <time>2012-04-17T13:03:47Z</time>
      </trkpt>
      <trkpt lat="44.96691" lon="0.11268">
        <ele>99.15</ele>
        <time>2012-04-17T13:04:00Z</time>
      </trkpt>
      <trkpt lat="44.96691" lon="0.11254">
        <ele>99.15</ele>
        <time>2012-04-17T13:04:09Z</time>
      </trkpt>
      <trkpt lat="44.96688" lon="0.11244">
        <ele>99.15</ele>
        <time>2012-04-17T13:04:17Z</time>
      </trkpt>
      <trkpt lat="44.96687" lon="0.11224">
        <ele>100.11</ele>
        <time>2012-04-17T13:04:29Z</time>
      </trkpt>
      <trkpt lat="44.96682" lon="0.11208">
        <ele>100.11</ele>
        <time>2012-04-17T13:04:38Z</time>
      </trkpt>
      <trkpt lat="44.96683" lon="0.11178">
        <ele>100.6</ele>
        <time>2012-04-17T13:04:55Z</time>
      </trkpt>
      <trkpt lat="44.96686" lon="0.11162">
        <ele>99.63</ele>
        <time>2012-04-17T13:05:04Z</time>
      </trkpt>
      <trkpt lat="44.9669" lon="0.11153">
        <ele>99.63</ele>
        <time>2012-04-17T13:05:10Z</time>
      </trkpt>
      <trkpt lat="44.96694" lon="0.11131">
        <ele>99.15</ele>
        <time>2012-04-17T13:05:21Z</time>
      </trkpt>
      <trkpt lat="44.967" lon="0.11112">
        <ele>98.19</ele>
        <time>2012-04-17T13:05:32Z</time>
      </trkpt>
      <trkpt lat="44.96703" lon="0.11103">
        <ele>97.71</ele>
        <time>2012-04-17T13:05:38Z</time>
      </trkpt>
      <trkpt lat="44.96707" lon="0.11093">
        <ele>97.23</ele>
        <time>2012-04-17T13:05:45Z</time>
      </trkpt>
      <trkpt lat="44.96715" lon="0.11074">
        <ele>96.27</ele>
        <time>2012-04-17T13:05:58Z</time>
      </trkpt>
      <trkpt lat="44.96725" lon="0.11058">
        <ele>95.79</ele>
        <time>2012-04-17T13:06:07Z</time>
      </trkpt>
      <trkpt lat="44.9673" lon="0.1105">
        <ele>94.83</ele>
        <time>2012-04-17T13:06:12Z</time>
      </trkpt>
      <trkpt lat="44.9674" lon="0.11036">
        <ele>94.83</ele>
        <time>2012-04-17T13:06:24Z</time>
      </trkpt>
      <trkpt lat="44.96751" lon="0.11017">
        <ele>93.87</ele>
        <time>2012-04-17T13:06:36Z</time>
      </trkpt>
      <trkpt lat="44.96759" lon="0.11003">
        <ele>93.87</ele>
        <time>2012-04-17T13:06:47Z</time>
      </trkpt>
      <trkpt lat="44.96766" lon="0.10985">
        <ele>93.87</ele>
        <time>2012-04-17T13:06:59Z</time>
      </trkpt>
      <trkpt lat="44.96771" lon="0.10968">
        <ele>94.35</ele>
        <time>2012-04-17T13:07:09Z</time>
      </trkpt>
      <trkpt lat="44.96777" lon="0.10949">
        <ele>94.83</ele>
        <time>2012-04-17T13:07:21Z</time>
      </trkpt>
      <trkpt lat="44.96781" lon="0.1093">
        <ele>95.79</ele>
        <time>2012-04-17T13:07:32Z</time>
      </trkpt>
      <trkpt lat="44.96784" lon="0.10914">
        <ele>97.23</ele>
        <time>2012-04-17T13:07:43Z</time>
      </trkpt>
      <trkpt lat="44.96787" lon="0.10899">
        <ele>98.19</ele>
        <time>2012-04-17T13:07:52Z</time>
      </trkpt>
      <trkpt lat="44.96794" lon="0.10888">
        <ele>98.67</ele>
        <time>2012-04-17T13:08:01Z</time>
      </trkpt>
      <trkpt lat="44.96797" lon="0.10881">
        <ele>97.23</ele>
        <time>2012-04-17T13:08:14Z</time>
      </trkpt>
      <trkpt lat="44.96815" lon="0.10874">
        <ele>95.31</ele>
        <time>2012-04-17T13:08:35Z</time>
      </trkpt>
      <trkpt lat="44.96825" lon="0.1087">
        <ele>94.35</ele>
        <time>2012-04-17T13:08:44Z</time>
      </trkpt>
      <trkpt lat="44.96834" lon="0.10863">
        <ele>93.87</ele>
        <time>2012-04-17T13:08:54Z</time>
      </trkpt>
      <trkpt lat="44.96843" lon="0.10853">
        <ele>93.87</ele>
        <time>2012-04-17T13:09:01Z</time>
      </trkpt>
      <trkpt lat="44.96852" lon="0.10847">
        <ele>93.87</ele>
        <time>2012-04-17T13:09:05Z</time>
      </trkpt>
      <trkpt lat="44.96862" lon="0.10838">
        <ele>93.39</ele>
        <time>2012-04-17T13:09:12Z</time>
      </trkpt>
      <trkpt lat="44.96879" lon="0.10834">
        <ele>93.39</ele>
        <time>2012-04-17T13:09:24Z</time>
      </trkpt>
      <trkpt lat="44.96882" lon="0.10827">
        <ele>93.39</ele>
        <time>2012-04-17T13:09:29Z</time>
      </trkpt>
      <trkpt lat="44.96873" lon="0.10811">
        <ele>93.87</ele>
        <time>2012-04-17T13:09:45Z</time>
      </trkpt>
      <trkpt lat="44.96864" lon="0.10805">
        <ele>95.31</ele>
        <time>2012-04-17T13:09:55Z</time>
      </trkpt>
      <trkpt lat="44.96858" lon="0.10797">
        <ele>95.31</ele>
        <time>2012-04-17T13:10:04Z</time>
      </trkpt>
      <trkpt lat="44.96855" lon="0.10774">
        <ele>93.87</ele>
        <time>2012-04-17T13:10:17Z</time>
      </trkpt>
      <trkpt lat="44.96851" lon="0.10753">
        <ele>93.87</ele>
        <time>2012-04-17T13:10:29Z</time>
      </trkpt>
      <trkpt lat="44.96847" lon="0.10743">
        <ele>92.9</ele>
        <time>2012-04-17T13:10:37Z</time>
      </trkpt>
      <trkpt lat="44.96843" lon="0.10723">
        <ele>92.9</ele>
        <time>2012-04-17T13:10:53Z</time>
      </trkpt>
      <trkpt lat="44.96839" lon="0.1071">
        <ele>92.9</ele>
        <time>2012-04-17T13:11:10Z</time>
      </trkpt>
      <trkpt lat="44.96831" lon="0.10684">
        <ele>92.9</ele>
        <time>2012-04-17T13:11:21Z</time>
      </trkpt>
      <trkpt lat="44.96825" lon="0.10665">
        <ele>92.42</ele>
        <time>2012-04-17T13:11:32Z</time>
      </trkpt>
      <trkpt lat="44.96822" lon="0.10658">
        <ele>93.39</ele>
        <time>2012-04-17T13:11:42Z</time>
      </trkpt>
      <trkpt lat="44.96817" lon="0.10624">
        <ele>92.42</ele>
        <time>2012-04-17T13:12:02Z</time>
      </trkpt>
      <trkpt lat="44.96813" lon="0.106">
        <ele>92.42</ele>
        <time>2012-04-17T13:12:13Z</time>
      </trkpt>
      <trkpt lat="44.96808" lon="0.10564">
        <ele>93.39</ele>
        <time>2012-04-17T13:13:00Z</time>
      </trkpt>
      <trkpt lat="44.96803" lon="0.10525">
        <ele>94.35</ele>
        <time>2012-04-17T13:13:11Z</time>
      </trkpt>
      <trkpt lat="44.96802" lon="0.1051">
        <ele>94.83</ele>
        <time>2012-04-17T13:13:19Z</time>
      </trkpt>
      <trkpt lat="44.968" lon="0.10472">
        <ele>95.79</ele>
        <time>2012-04-17T13:13:28Z</time>
      </trkpt>
      <trkpt lat="44.968" lon="0.10461">
        <ele>95.79</ele>
        <time>2012-04-17T13:13:31Z</time>
      </trkpt>
      <trkpt lat="44.96796" lon="0.10424">
        <ele>96.75</ele>
        <time>2012-04-17T13:13:43Z</time>
      </trkpt>
      <trkpt lat="44.96791" lon="0.10399">
        <ele>97.23</ele>
        <time>2012-04-17T13:13:55Z</time>
      </trkpt>
      <trkpt lat="44.96787" lon="0.10367">
        <ele>97.23</ele>
        <time>2012-04-17T13:14:06Z</time>
      </trkpt>
      <trkpt lat="44.96784" lon="0.10341">
        <ele>97.71</ele>
        <time>2012-04-17T13:14:18Z</time>
      </trkpt>
      <trkpt lat="44.96781" lon="0.10324">
        <ele>98.19</ele>
        <time>2012-04-17T13:14:30Z</time>
      </trkpt>
      <trkpt lat="44.96778" lon="0.10312">
        <ele>99.15</ele>
        <time>2012-04-17T13:14:42Z</time>
      </trkpt>
      <trkpt lat="44.96772" lon="0.10293">
        <ele>100.6</ele>
        <time>2012-04-17T13:14:53Z</time>
      </trkpt>
      <trkpt lat="44.96769" lon="0.10283">
        <ele>102.52</ele>
        <time>2012-04-17T13:15:04Z</time>
      </trkpt>
      <trkpt lat="44.96766" lon="0.10279">
        <ele>104.92</ele>
        <time>2012-04-17T13:15:25Z</time>
      </trkpt>
      <trkpt lat="44.96759" lon="0.10274">
        <ele>105.88</ele>
        <time>2012-04-17T13:15:35Z</time>
      </trkpt>
      <trkpt lat="44.96736" lon="0.10258">
        <ele>109.25</ele>
        <time>2012-04-17T13:16:27Z</time>
      </trkpt>
      <trkpt lat="44.96706" lon="0.10247">
        <ele>109.73</ele>
        <time>2012-04-17T13:16:37Z</time>
      </trkpt>
      <trkpt lat="44.96695" lon="0.10229">
        <ele>109.73</ele>
        <time>2012-04-17T13:16:47Z</time>
      </trkpt>
      <trkpt lat="44.96688" lon="0.10204">
        <ele>110.21</ele>
        <time>2012-04-17T13:16:57Z</time>
      </trkpt>
      <trkpt lat="44.96686" lon="0.10186">
        <ele>110.21</ele>
        <time>2012-04-17T13:17:01Z</time>
      </trkpt>
      <trkpt lat="44.96682" lon="0.10164">
        <ele>110.69</ele>
        <time>2012-04-17T13:17:07Z</time>
      </trkpt>
      <trkpt lat="44.96679" lon="0.10129">
        <ele>110.69</ele>
        <time>2012-04-17T13:17:19Z</time>
      </trkpt>
      <trkpt lat="44.96677" lon="0.10095">
        <ele>110.69</ele>
        <time>2012-04-17T13:17:32Z</time>
      </trkpt>
      <trkpt lat="44.96676" lon="0.10086">
        <ele>111.17</ele>
        <time>2012-04-17T13:17:43Z</time>
      </trkpt>
      <trkpt lat="44.96676" lon="0.10063">
        <ele>111.17</ele>
        <time>2012-04-17T13:17:53Z</time>
      </trkpt>
      <trkpt lat="44.96674" lon="0.10045">
        <ele>111.17</ele>
        <time>2012-04-17T13:18:03Z</time>
      </trkpt>
      <trkpt lat="44.96672" lon="0.1002">
        <ele>111.17</ele>
        <time>2012-04-17T13:18:14Z</time>
      </trkpt>
      <trkpt lat="44.96669" lon="0.09993">
        <ele>111.17</ele>
        <time>2012-04-17T13:18:27Z</time>
      </trkpt>
      <trkpt lat="44.96667" lon="0.09974">
        <ele>111.17</ele>
        <time>2012-04-17T13:18:37Z</time>
      </trkpt>
      <trkpt lat="44.96662" lon="0.09947">
        <ele>111.17</ele>
        <time>2012-04-17T13:18:50Z</time>
      </trkpt>
      <trkpt lat="44.96659" lon="0.09934">
        <ele>111.17</ele>
        <time>2012-04-17T13:18:56Z</time>
      </trkpt>
      <trkpt lat="44.96659" lon="0.09911">
        <ele>110.69</ele>
        <time>2012-04-17T13:19:08Z</time>
      </trkpt>
      <trkpt lat="44.96656" lon="0.09888">
        <ele>110.69</ele>
        <time>2012-04-17T13:19:18Z</time>
      </trkpt>
      <trkpt lat="44.96654" lon="0.09855">
        <ele>110.21</ele>
        <time>2012-04-17T13:19:30Z</time>
      </trkpt>
      <trkpt lat="44.96649" lon="0.09831">
        <ele>109.73</ele>
        <time>2012-04-17T13:19:43Z</time>
      </trkpt>
      <trkpt lat="44.96645" lon="0.09814">
        <ele>108.77</ele>
        <time>2012-04-17T13:19:55Z</time>
      </trkpt>
      <trkpt lat="44.96642" lon="0.0979">
        <ele>108.29</ele>
        <time>2012-04-17T13:20:06Z</time>
      </trkpt>
      <trkpt lat="44.96641" lon="0.09768">
        <ele>107.81</ele>
        <time>2012-04-17T13:20:17Z</time>
      </trkpt>
      <trkpt lat="44.96636" lon="0.09749">
        <ele>107.32</ele>
        <time>2012-04-17T13:20:28Z</time>
      </trkpt>
      <trkpt lat="44.96633" lon="0.09717">
        <ele>106.36</ele>
        <time>2012-04-17T13:20:43Z</time>
      </trkpt>
      <trkpt lat="44.9663" lon="0.09694">
        <ele>105.88</ele>
        <time>2012-04-17T13:20:54Z</time>
      </trkpt>
      <trkpt lat="44.96627" lon="0.09675">
        <ele>104.92</ele>
        <time>2012-04-17T13:21:02Z</time>
      </trkpt>
      <trkpt lat="44.96627" lon="0.09651">
        <ele>103</ele>
        <time>2012-04-17T13:21:15Z</time>
      </trkpt>
      <trkpt lat="44.96626" lon="0.09638">
        <ele>102.04</ele>
        <time>2012-04-17T13:21:21Z</time>
      </trkpt>
      <trkpt lat="44.96622" lon="0.09618">
        <ele>99.15</ele>
        <time>2012-04-17T13:21:32Z</time>
      </trkpt>
      <trkpt lat="44.96623" lon="0.09601">
        <ele>95.79</ele>
        <time>2012-04-17T13:21:45Z</time>
      </trkpt>
      <trkpt lat="44.9662" lon="0.09566">
        <ele>91.94</ele>
        <time>2012-04-17T13:22:00Z</time>
      </trkpt>
      <trkpt lat="44.9662" lon="0.09552">
        <ele>90.02</ele>
        <time>2012-04-17T13:22:09Z</time>
      </trkpt>
      <trkpt lat="44.96615" lon="0.0955">
        <ele>89.54</ele>
        <time>2012-04-17T13:22:14Z</time>
      </trkpt>
      <trkpt lat="44.96601" lon="0.09538">
        <ele>88.58</ele>
        <time>2012-04-17T13:22:28Z</time>
      </trkpt>
      <trkpt lat="44.96593" lon="0.09533">
        <ele>88.58</ele>
        <time>2012-04-17T13:22:36Z</time>
      </trkpt>
      <trkpt lat="44.96586" lon="0.09534">
        <ele>89.06</ele>
        <time>2012-04-17T13:22:42Z</time>
      </trkpt>
      <trkpt lat="44.96581" lon="0.09531">
        <ele>89.06</ele>
        <time>2012-04-17T13:22:47Z</time>
      </trkpt>
      <trkpt lat="44.96568" lon="0.09532">
        <ele>89.54</ele>
        <time>2012-04-17T13:22:58Z</time>
      </trkpt>
      <trkpt lat="44.96562" lon="0.09515">
        <ele>90.5</ele>
        <time>2012-04-17T13:23:08Z</time>
      </trkpt>
      <trkpt lat="44.96545" lon="0.09509">
        <ele>90.5</ele>
        <time>2012-04-17T13:23:19Z</time>
      </trkpt>
      <trkpt lat="44.96527" lon="0.09514">
        <ele>90.5</ele>
        <time>2012-04-17T13:23:30Z</time>
      </trkpt>
      <trkpt lat="44.96517" lon="0.09514">
        <ele>90.98</ele>
        <time>2012-04-17T13:23:39Z</time>
      </trkpt>
      <trkpt lat="44.96507" lon="0.09519">
        <ele>90.98</ele>
        <time>2012-04-17T13:23:49Z</time>
      </trkpt>
      <trkpt lat="44.96483" lon="0.0953">
        <ele>89.54</ele>
        <time>2012-04-17T13:24:04Z</time>
      </trkpt>
      <trkpt lat="44.96476" lon="0.09536">
        <ele>89.06</ele>
        <time>2012-04-17T13:24:12Z</time>
      </trkpt>
      <trkpt lat="44.96469" lon="0.09541">
        <ele>88.58</ele>
        <time>2012-04-17T13:24:18Z</time>
      </trkpt>
      <trkpt lat="44.96456" lon="0.0955">
        <ele>87.62</ele>
        <time>2012-04-17T13:24:29Z</time>
      </trkpt>
      <trkpt lat="44.96451" lon="0.09554">
        <ele>87.14</ele>
        <time>2012-04-17T13:24:34Z</time>
      </trkpt>
      <trkpt lat="44.96439" lon="0.09564">
        <ele>86.66</ele>
        <time>2012-04-17T13:24:46Z</time>
      </trkpt>
      <trkpt lat="44.9643" lon="0.09571">
        <ele>86.18</ele>
        <time>2012-04-17T13:24:55Z</time>
      </trkpt>
      <trkpt lat="44.96425" lon="0.09575">
        <ele>86.18</ele>
        <time>2012-04-17T13:25:06Z</time>
      </trkpt>
      <trkpt lat="44.96417" lon="0.09579">
        <ele>86.18</ele>
        <time>2012-04-17T13:25:16Z</time>
      </trkpt>
      <trkpt lat="44.96403" lon="0.09586">
        <ele>86.66</ele>
        <time>2012-04-17T13:25:24Z</time>
      </trkpt>
      <trkpt lat="44.96395" lon="0.0959">
        <ele>86.66</ele>
        <time>2012-04-17T13:25:29Z</time>
      </trkpt>
      <trkpt lat="44.96386" lon="0.09589">
        <ele>86.18</ele>
        <time>2012-04-17T13:25:51Z</time>
      </trkpt>
      <trkpt lat="44.96375" lon="0.09588">
        <ele>86.18</ele>
        <time>2012-04-17T13:25:55Z</time>
      </trkpt>
      <trkpt lat="44.96352" lon="0.09588">
        <ele>85.69</ele>
        <time>2012-04-17T13:26:07Z</time>
      </trkpt>
      <trkpt lat="44.96341" lon="0.09589">
        <ele>85.21</ele>
        <time>2012-04-17T13:26:14Z</time>
      </trkpt>
      <trkpt lat="44.96324" lon="0.09594">
        <ele>84.73</ele>
        <time>2012-04-17T13:26:25Z</time>
      </trkpt>
      <trkpt lat="44.96305" lon="0.096">
        <ele>83.77</ele>
        <time>2012-04-17T13:26:34Z</time>
      </trkpt>
      <trkpt lat="44.9629" lon="0.09605">
        <ele>83.29</ele>
        <time>2012-04-17T13:26:44Z</time>
      </trkpt>
      <trkpt lat="44.9627" lon="0.09611">
        <ele>82.81</ele>
        <time>2012-04-17T13:26:57Z</time>
      </trkpt>
      <trkpt lat="44.9626" lon="0.09608">
        <ele>83.29</ele>
        <time>2012-04-17T13:27:08Z</time>
      </trkpt>
      <trkpt lat="44.96258" lon="0.09601">
        <ele>83.77</ele>
        <time>2012-04-17T13:27:16Z</time>
      </trkpt>
      <trkpt lat="44.9623" lon="0.09593">
        <ele>84.25</ele>
        <time>2012-04-17T13:27:29Z</time>
      </trkpt>
      <trkpt lat="44.96217" lon="0.09587">
        <ele>84.25</ele>
        <time>2012-04-17T13:27:36Z</time>
      </trkpt>
      <trkpt lat="44.96205" lon="0.09585">
        <ele>84.25</ele>
        <time>2012-04-17T13:27:39Z</time>
      </trkpt>
      <trkpt lat="44.96196" lon="0.09576">
        <ele>84.25</ele>
        <time>2012-04-17T13:27:43Z</time>
      </trkpt>
      <trkpt lat="44.96182" lon="0.09571">
        <ele>84.25</ele>
        <time>2012-04-17T13:27:49Z</time>
      </trkpt>
      <trkpt lat="44.96176" lon="0.09568">
        <ele>84.25</ele>
        <time>2012-04-17T13:27:52Z</time>
      </trkpt>
      <trkpt lat="44.96162" lon="0.09561">
        <ele>83.77</ele>
        <time>2012-04-17T13:28:01Z</time>
      </trkpt>
      <trkpt lat="44.96156" lon="0.09559">
        <ele>83.29</ele>
        <time>2012-04-17T13:28:04Z</time>
      </trkpt>
      <trkpt lat="44.96142" lon="0.09554">
        <ele>82.33</ele>
        <time>2012-04-17T13:28:14Z</time>
      </trkpt>
      <trkpt lat="44.96135" lon="0.09551">
        <ele>82.33</ele>
        <time>2012-04-17T13:28:19Z</time>
      </trkpt>
      <trkpt lat="44.96123" lon="0.09542">
        <ele>81.85</ele>
        <time>2012-04-17T13:28:30Z</time>
      </trkpt>
      <trkpt lat="44.96114" lon="0.09527">
        <ele>81.37</ele>
        <time>2012-04-17T13:28:41Z</time>
      </trkpt>
      <trkpt lat="44.96109" lon="0.09524">
        <ele>80.89</ele>
        <time>2012-04-17T13:28:46Z</time>
      </trkpt>
      <trkpt lat="44.96099" lon="0.09512">
        <ele>80.89</ele>
        <time>2012-04-17T13:28:55Z</time>
      </trkpt>
      <trkpt lat="44.96087" lon="0.09495">
        <ele>80.41</ele>
        <time>2012-04-17T13:29:07Z</time>
      </trkpt>
      <trkpt lat="44.9608" lon="0.09483">
        <ele>79.93</ele>
        <time>2012-04-17T13:29:16Z</time>
      </trkpt>
      <trkpt lat="44.9608" lon="0.09464">
        <ele>79.93</ele>
        <time>2012-04-17T13:30:54Z</time>
      </trkpt>
      <trkpt lat="44.96079" lon="0.09438">
        <ele>80.89</ele>
        <time>2012-04-17T13:32:02Z</time>
      </trkpt>
      <trkpt lat="44.96079" lon="0.09429">
        <ele>80.89</ele>
        <time>2012-04-17T13:32:37Z</time>
      </trkpt>
      <trkpt lat="44.9608" lon="0.0942">
        <ele>80.89</ele>
        <time>2012-04-17T13:32:43Z</time>
      </trkpt>
      <trkpt lat="44.96084" lon="0.09412">
        <ele>80.41</ele>
        <time>2012-04-17T13:32:49Z</time>
      </trkpt>
      <trkpt lat="44.9609" lon="0.09401">
        <ele>80.41</ele>
        <time>2012-04-17T13:33:00Z</time>
      </trkpt>
      <trkpt lat="44.96098" lon="0.09392">
        <ele>80.41</ele>
        <time>2012-04-17T13:33:07Z</time>
      </trkpt>
      <trkpt lat="44.96101" lon="0.09387">
        <ele>80.41</ele>
        <time>2012-04-17T13:33:11Z</time>
      </trkpt>
      <trkpt lat="44.96106" lon="0.09381">
        <ele>80.41</ele>
        <time>2012-04-17T13:33:15Z</time>
      </trkpt>
      <trkpt lat="44.9611" lon="0.09374">
        <ele>80.41</ele>
        <time>2012-04-17T13:33:19Z</time>
      </trkpt>
      <trkpt lat="44.96124" lon="0.09358">
        <ele>80.89</ele>
        <time>2012-04-17T13:33:32Z</time>
      </trkpt>
      <trkpt lat="44.96135" lon="0.09343">
        <ele>80.89</ele>
        <time>2012-04-17T13:33:43Z</time>
      </trkpt>
      <trkpt lat="44.96144" lon="0.0933">
        <ele>81.37</ele>
        <time>2012-04-17T13:33:53Z</time>
      </trkpt>
      <trkpt lat="44.96152" lon="0.09318">
        <ele>82.33</ele>
        <time>2012-04-17T13:34:03Z</time>
      </trkpt>
      <trkpt lat="44.96156" lon="0.09313">
        <ele>82.33</ele>
        <time>2012-04-17T13:34:07Z</time>
      </trkpt>
      <trkpt lat="44.96165" lon="0.09303">
        <ele>82.81</ele>
        <time>2012-04-17T13:34:15Z</time>
      </trkpt>
      <trkpt lat="44.96168" lon="0.09299">
        <ele>82.81</ele>
        <time>2012-04-17T13:34:18Z</time>
      </trkpt>
      <trkpt lat="44.96178" lon="0.09289">
        <ele>83.29</ele>
        <time>2012-04-17T13:34:25Z</time>
      </trkpt>
      <trkpt lat="44.96191" lon="0.09272">
        <ele>84.25</ele>
        <time>2012-04-17T13:34:38Z</time>
      </trkpt>
      <trkpt lat="44.96196" lon="0.09264">
        <ele>84.73</ele>
        <time>2012-04-17T13:34:47Z</time>
      </trkpt>
      <trkpt lat="44.96201" lon="0.09256">
        <ele>85.21</ele>
        <time>2012-04-17T13:34:57Z</time>
      </trkpt>
      <trkpt lat="44.96209" lon="0.09245">
        <ele>86.18</ele>
        <time>2012-04-17T13:35:07Z</time>
      </trkpt>
      <trkpt lat="44.96214" lon="0.09239">
        <ele>86.66</ele>
        <time>2012-04-17T13:35:16Z</time>
      </trkpt>
      <trkpt lat="44.9623" lon="0.09222">
        <ele>87.14</ele>
        <time>2012-04-17T13:35:25Z</time>
      </trkpt>
      <trkpt lat="44.9624" lon="0.09211">
        <ele>87.62</ele>
        <time>2012-04-17T13:35:32Z</time>
      </trkpt>
      <trkpt lat="44.96242" lon="0.09198">
        <ele>87.62</ele>
        <time>2012-04-17T13:35:43Z</time>
      </trkpt>
      <trkpt lat="44.96238" lon="0.09193">
        <ele>86.66</ele>
        <time>2012-04-17T13:35:53Z</time>
      </trkpt>
      <trkpt lat="44.96234" lon="0.09182">
        <ele>86.66</ele>
        <time>2012-04-17T13:36:02Z</time>
      </trkpt>
      <trkpt lat="44.96233" lon="0.09174">
        <ele>86.18</ele>
        <time>2012-04-17T13:36:07Z</time>
      </trkpt>
      <trkpt lat="44.96224" lon="0.09153">
        <ele>85.69</ele>
        <time>2012-04-17T13:36:17Z</time>
      </trkpt>
      <trkpt lat="44.96218" lon="0.09147">
        <ele>85.21</ele>
        <time>2012-04-17T13:36:21Z</time>
      </trkpt>
      <trkpt lat="44.96215" lon="0.09139">
        <ele>85.21</ele>
        <time>2012-04-17T13:36:25Z</time>
      </trkpt>
      <trkpt lat="44.96208" lon="0.09122">
        <ele>85.69</ele>
        <time>2012-04-17T13:36:33Z</time>
      </trkpt>
      <trkpt lat="44.96204" lon="0.09115">
        <ele>86.66</ele>
        <time>2012-04-17T13:36:37Z</time>
      </trkpt>
      <trkpt lat="44.96192" lon="0.09085">
        <ele>84.73</ele>
        <time>2012-04-17T13:36:51Z</time>
      </trkpt>
      <trkpt lat="44.96182" lon="0.09063">
        <ele>85.21</ele>
        <time>2012-04-17T13:37:02Z</time>
      </trkpt>
      <trkpt lat="44.96168" lon="0.09032">
        <ele>85.21</ele>
        <time>2012-04-17T13:37:18Z</time>
      </trkpt>
      <trkpt lat="44.9616" lon="0.09011">
        <ele>86.18</ele>
        <time>2012-04-17T13:37:28Z</time>
      </trkpt>
      <trkpt lat="44.96148" lon="0.08991">
        <ele>87.14</ele>
        <time>2012-04-17T13:37:39Z</time>
      </trkpt>
      <trkpt lat="44.96141" lon="0.08977">
        <ele>87.14</ele>
        <time>2012-04-17T13:37:48Z</time>
      </trkpt>
      <trkpt lat="44.96131" lon="0.08962">
        <ele>87.14</ele>
        <time>2012-04-17T13:37:58Z</time>
      </trkpt>
      <trkpt lat="44.96121" lon="0.08943">
        <ele>86.18</ele>
        <time>2012-04-17T13:38:10Z</time>
      </trkpt>
      <trkpt lat="44.9611" lon="0.08926">
        <ele>85.21</ele>
        <time>2012-04-17T13:38:21Z</time>
      </trkpt>
      <trkpt lat="44.96108" lon="0.08907">
        <ele>84.73</ele>
        <time>2012-04-17T13:38:33Z</time>
      </trkpt>
      <trkpt lat="44.9611" lon="0.08894">
        <ele>84.25</ele>
        <time>2012-04-17T13:38:42Z</time>
      </trkpt>
      <trkpt lat="44.96114" lon="0.08878">
        <ele>83.77</ele>
        <time>2012-04-17T13:38:52Z</time>
      </trkpt>
      <trkpt lat="44.96118" lon="0.08859">
        <ele>83.77</ele>
        <time>2012-04-17T13:39:01Z</time>
      </trkpt>
      <trkpt lat="44.96119" lon="0.08841">
        <ele>82.81</ele>
        <time>2012-04-17T13:39:10Z</time>
      </trkpt>
      <trkpt lat="44.96122" lon="0.08821">
        <ele>82.33</ele>
        <time>2012-04-17T13:39:19Z</time>
      </trkpt>
      <trkpt lat="44.96124" lon="0.08805">
        <ele>82.33</ele>
        <time>2012-04-17T13:39:26Z</time>
      </trkpt>
      <trkpt lat="44.96127" lon="0.08783">
        <ele>81.85</ele>
        <time>2012-04-17T13:39:37Z</time>
      </trkpt>
      <trkpt lat="44.9613" lon="0.08761">
        <ele>81.37</ele>
        <time>2012-04-17T13:39:47Z</time>
      </trkpt>
      <trkpt lat="44.96133" lon="0.08746">
        <ele>81.37</ele>
        <time>2012-04-17T13:39:55Z</time>
      </trkpt>
      <trkpt lat="44.96134" lon="0.08723">
        <ele>79.93</ele>
        <time>2012-04-17T13:40:07Z</time>
      </trkpt>
      <trkpt lat="44.96136" lon="0.08706">
        <ele>80.41</ele>
        <time>2012-04-17T13:40:16Z</time>
      </trkpt>
      <trkpt lat="44.96137" lon="0.08692">
        <ele>78.97</ele>
        <time>2012-04-17T13:40:23Z</time>
      </trkpt>
      <trkpt lat="44.96139" lon="0.08676">
        <ele>78</ele>
        <time>2012-04-17T13:40:31Z</time>
      </trkpt>
      <trkpt lat="44.96144" lon="0.08655">
        <ele>77.52</ele>
        <time>2012-04-17T13:40:42Z</time>
      </trkpt>
      <trkpt lat="44.96148" lon="0.08642">
        <ele>76.56</ele>
        <time>2012-04-17T13:40:50Z</time>
      </trkpt>
      <trkpt lat="44.96153" lon="0.08631">
        <ele>75.6</ele>
        <time>2012-04-17T13:40:57Z</time>
      </trkpt>
      <trkpt lat="44.96158" lon="0.0861">
        <ele>75.12</ele>
        <time>2012-04-17T13:41:10Z</time>
      </trkpt>
      <trkpt lat="44.96146" lon="0.08593">
        <ele>74.64</ele>
        <time>2012-04-17T13:41:25Z</time>
      </trkpt>
      <trkpt lat="44.96132" lon="0.08586">
        <ele>73.2</ele>
        <time>2012-04-17T13:41:38Z</time>
      </trkpt>
      <trkpt lat="44.96119" lon="0.08581">
        <ele>73.2</ele>
        <time>2012-04-17T13:41:47Z</time>
      </trkpt>
      <trkpt lat="44.9611" lon="0.08579">
        <ele>73.68</ele>
        <time>2012-04-17T13:41:53Z</time>
      </trkpt>
      <trkpt lat="44.96094" lon="0.08573">
        <ele>72.72</ele>
        <time>2012-04-17T13:42:06Z</time>
      </trkpt>
      <trkpt lat="44.9608" lon="0.08566">
        <ele>72.72</ele>
        <time>2012-04-17T13:42:16Z</time>
      </trkpt>
      <trkpt lat="44.96065" lon="0.08559">
        <ele>71.76</ele>
        <time>2012-04-17T13:42:28Z</time>
      </trkpt>
      <trkpt lat="44.96051" lon="0.08555">
        <ele>71.76</ele>
        <time>2012-04-17T13:42:38Z</time>
      </trkpt>
      <trkpt lat="44.96037" lon="0.08549">
        <ele>70.79</ele>
        <time>2012-04-17T13:42:48Z</time>
      </trkpt>
      <trkpt lat="44.96026" lon="0.08542">
        <ele>71.27</ele>
        <time>2012-04-17T13:42:58Z</time>
      </trkpt>
      <trkpt lat="44.96021" lon="0.08538">
        <ele>70.79</ele>
        <time>2012-04-17T13:43:03Z</time>
      </trkpt>
      <trkpt lat="44.96017" lon="0.08534">
        <ele>70.31</ele>
        <time>2012-04-17T13:43:13Z</time>
      </trkpt>
      <trkpt lat="44.96014" lon="0.0851">
        <ele>70.31</ele>
        <time>2012-04-17T13:43:33Z</time>
      </trkpt>
      <trkpt lat="44.96014" lon="0.08495">
        <ele>69.83</ele>
        <time>2012-04-17T13:43:41Z</time>
      </trkpt>
      <trkpt lat="44.96012" lon="0.0848">
        <ele>69.35</ele>
        <time>2012-04-17T13:43:51Z</time>
      </trkpt>
      <trkpt lat="44.96008" lon="0.08463">
        <ele>69.35</ele>
        <time>2012-04-17T13:44:01Z</time>
      </trkpt>
      <trkpt lat="44.96005" lon="0.08457">
        <ele>69.35</ele>
        <time>2012-04-17T13:44:06Z</time>
      </trkpt>
      <trkpt lat="44.95995" lon="0.08437">
        <ele>68.39</ele>
        <time>2012-04-17T13:44:19Z</time>
      </trkpt>
      <trkpt lat="44.9598" lon="0.08435">
        <ele>68.39</ele>
        <time>2012-04-17T13:44:30Z</time>
      </trkpt>
      <trkpt lat="44.95969" lon="0.08433">
        <ele>68.39</ele>
        <time>2012-04-17T13:44:39Z</time>
      </trkpt>
      <trkpt lat="44.95958" lon="0.08424">
        <ele>67.43</ele>
        <time>2012-04-17T13:44:50Z</time>
      </trkpt>
      <trkpt lat="44.95946" lon="0.08412">
        <ele>66.47</ele>
        <time>2012-04-17T13:45:00Z</time>
      </trkpt>
      <trkpt lat="44.9594" lon="0.08411">
        <ele>65.99</ele>
        <time>2012-04-17T13:45:11Z</time>
      </trkpt>
      <trkpt lat="44.95933" lon="0.0841">
        <ele>65.99</ele>
        <time>2012-04-17T13:45:25Z</time>
      </trkpt>
      <trkpt lat="44.9592" lon="0.0843">
        <ele>66.47</ele>
        <time>2012-04-17T13:45:45Z</time>
      </trkpt>
      <trkpt lat="44.95913" lon="0.08443">
        <ele>67.43</ele>
        <time>2012-04-17T13:45:56Z</time>
      </trkpt>
      <trkpt lat="44.95893" lon="0.08459">
        <ele>65.51</ele>
        <time>2012-04-17T13:46:10Z</time>
      </trkpt>
      <trkpt lat="44.95881" lon="0.08466">
        <ele>66.47</ele>
        <time>2012-04-17T13:46:18Z</time>
      </trkpt>
      <trkpt lat="44.95867" lon="0.08481">
        <ele>65.99</ele>
        <time>2012-04-17T13:46:29Z</time>
      </trkpt>
      <trkpt lat="44.95855" lon="0.08492">
        <ele>66.47</ele>
        <time>2012-04-17T13:46:38Z</time>
      </trkpt>
      <trkpt lat="44.95837" lon="0.08508">
        <ele>66.47</ele>
        <time>2012-04-17T13:46:54Z</time>
      </trkpt>
      <trkpt lat="44.95823" lon="0.08521">
        <ele>66.47</ele>
        <time>2012-04-17T13:47:06Z</time>
      </trkpt>
      <trkpt lat="44.95814" lon="0.08535">
        <ele>66.47</ele>
        <time>2012-04-17T13:47:19Z</time>
      </trkpt>
      <trkpt lat="44.95796" lon="0.0855">
        <ele>65.99</ele>
        <time>2012-04-17T13:47:32Z</time>
      </trkpt>
      <trkpt lat="44.9578" lon="0.08564">
        <ele>66.95</ele>
        <time>2012-04-17T13:47:44Z</time>
      </trkpt>
      <trkpt lat="44.95767" lon="0.08575">
        <ele>68.39</ele>
        <time>2012-04-17T13:47:56Z</time>
      </trkpt>
      <trkpt lat="44.95748" lon="0.08589">
        <ele>67.91</ele>
        <time>2012-04-17T13:48:08Z</time>
      </trkpt>
      <trkpt lat="44.9574" lon="0.08593">
        <ele>67.91</ele>
        <time>2012-04-17T13:48:13Z</time>
      </trkpt>
      <trkpt lat="44.95729" lon="0.08592">
        <ele>68.39</ele>
        <time>2012-04-17T13:48:20Z</time>
      </trkpt>
      <trkpt lat="44.95717" lon="0.08589">
        <ele>68.87</ele>
        <time>2012-04-17T13:48:31Z</time>
      </trkpt>
      <trkpt lat="44.95704" lon="0.0859">
        <ele>68.87</ele>
        <time>2012-04-17T13:48:43Z</time>
      </trkpt>
      <trkpt lat="44.9569" lon="0.08591">
        <ele>69.83</ele>
        <time>2012-04-17T13:48:53Z</time>
      </trkpt>
      <trkpt lat="44.95679" lon="0.08591">
        <ele>69.83</ele>
        <time>2012-04-17T13:49:03Z</time>
      </trkpt>
      <trkpt lat="44.95671" lon="0.08593">
        <ele>70.31</ele>
        <time>2012-04-17T13:49:10Z</time>
      </trkpt>
      <trkpt lat="44.95655" lon="0.08597">
        <ele>70.79</ele>
        <time>2012-04-17T13:49:22Z</time>
      </trkpt>
      <trkpt lat="44.95646" lon="0.08598">
        <ele>71.76</ele>
        <time>2012-04-17T13:49:29Z</time>
      </trkpt>
      <trkpt lat="44.95635" lon="0.08596">
        <ele>72.72</ele>
        <time>2012-04-17T13:49:39Z</time>
      </trkpt>
      <trkpt lat="44.95622" lon="0.08599">
        <ele>74.16</ele>
        <time>2012-04-17T13:49:50Z</time>
      </trkpt>
      <trkpt lat="44.95611" lon="0.086">
        <ele>76.08</ele>
        <time>2012-04-17T13:50:03Z</time>
      </trkpt>
      <trkpt lat="44.95598" lon="0.08599">
        <ele>77.52</ele>
        <time>2012-04-17T13:50:14Z</time>
      </trkpt>
      <trkpt lat="44.95584" lon="0.08595">
        <ele>77.52</ele>
        <time>2012-04-17T13:50:26Z</time>
      </trkpt>
      <trkpt lat="44.95579" lon="0.08589">
        <ele>78</ele>
        <time>2012-04-17T13:50:44Z</time>
      </trkpt>
      <trkpt lat="44.95572" lon="0.0859">
        <ele>78</ele>
        <time>2012-04-17T13:50:54Z</time>
      </trkpt>
      <trkpt lat="44.95558" lon="0.08588">
        <ele>78.48</ele>
        <time>2012-04-17T13:51:07Z</time>
      </trkpt>
      <trkpt lat="44.95552" lon="0.08589">
        <ele>78.48</ele>
        <time>2012-04-17T13:51:11Z</time>
      </trkpt>
      <trkpt lat="44.95536" lon="0.08595">
        <ele>78.97</ele>
        <time>2012-04-17T13:51:23Z</time>
      </trkpt>
      <trkpt lat="44.95519" lon="0.086">
        <ele>79.45</ele>
        <time>2012-04-17T13:51:35Z</time>
      </trkpt>
      <trkpt lat="44.95502" lon="0.08603">
        <ele>79.93</ele>
        <time>2012-04-17T13:51:46Z</time>
      </trkpt>
      <trkpt lat="44.95488" lon="0.0861">
        <ele>80.89</ele>
        <time>2012-04-17T13:51:57Z</time>
      </trkpt>
      <trkpt lat="44.95474" lon="0.08613">
        <ele>81.37</ele>
        <time>2012-04-17T13:52:07Z</time>
      </trkpt>
      <trkpt lat="44.95463" lon="0.08615">
        <ele>81.37</ele>
        <time>2012-04-17T13:52:14Z</time>
      </trkpt>
      <trkpt lat="44.95448" lon="0.08618">
        <ele>81.85</ele>
        <time>2012-04-17T13:52:26Z</time>
      </trkpt>
      <trkpt lat="44.95437" lon="0.08625">
        <ele>81.85</ele>
        <time>2012-04-17T13:52:36Z</time>
      </trkpt>
      <trkpt lat="44.95423" lon="0.08636">
        <ele>81.37</ele>
        <time>2012-04-17T13:52:47Z</time>
      </trkpt>
      <trkpt lat="44.95413" lon="0.08646">
        <ele>81.37</ele>
        <time>2012-04-17T13:52:56Z</time>
      </trkpt>
      <trkpt lat="44.95401" lon="0.0866">
        <ele>81.37</ele>
        <time>2012-04-17T13:53:07Z</time>
      </trkpt>
      <trkpt lat="44.95388" lon="0.08672">
        <ele>81.85</ele>
        <time>2012-04-17T13:53:17Z</time>
      </trkpt>
      <trkpt lat="44.95376" lon="0.08684">
        <ele>82.33</ele>
        <time>2012-04-17T13:53:28Z</time>
      </trkpt>
      <trkpt lat="44.95363" lon="0.08698">
        <ele>81.85</ele>
        <time>2012-04-17T13:53:40Z</time>
      </trkpt>
      <trkpt lat="44.95349" lon="0.08706">
        <ele>82.81</ele>
        <time>2012-04-17T13:53:51Z</time>
      </trkpt>
      <trkpt lat="44.95337" lon="0.08699">
        <ele>83.29</ele>
        <time>2012-04-17T13:54:01Z</time>
      </trkpt>
      <trkpt lat="44.95329" lon="0.08692">
        <ele>83.77</ele>
        <time>2012-04-17T13:54:08Z</time>
      </trkpt>
      <trkpt lat="44.95321" lon="0.08687">
        <ele>84.25</ele>
        <time>2012-04-17T13:54:17Z</time>
      </trkpt>
      <trkpt lat="44.95317" lon="0.08682">
        <ele>84.73</ele>
        <time>2012-04-17T13:54:41Z</time>
      </trkpt>
      <trkpt lat="44.95298" lon="0.08665">
        <ele>84.73</ele>
        <time>2012-04-17T13:54:54Z</time>
      </trkpt>
      <trkpt lat="44.95284" lon="0.08657">
        <ele>85.69</ele>
        <time>2012-04-17T13:55:08Z</time>
      </trkpt>
      <trkpt lat="44.95272" lon="0.08653">
        <ele>85.69</ele>
        <time>2012-04-17T13:55:18Z</time>
      </trkpt>
      <trkpt lat="44.95258" lon="0.08648">
        <ele>86.18</ele>
        <time>2012-04-17T13:55:28Z</time>
      </trkpt>
      <trkpt lat="44.95234" lon="0.08655">
        <ele>87.14</ele>
        <time>2012-04-17T13:55:43Z</time>
      </trkpt>
      <trkpt lat="44.95221" lon="0.08664">
        <ele>87.62</ele>
        <time>2012-04-17T13:55:54Z</time>
      </trkpt>
      <trkpt lat="44.95212" lon="0.08671">
        <ele>88.1</ele>
        <time>2012-04-17T13:56:04Z</time>
      </trkpt>
      <trkpt lat="44.95194" lon="0.08676">
        <ele>88.1</ele>
        <time>2012-04-17T13:56:18Z</time>
      </trkpt>
      <trkpt lat="44.95176" lon="0.0868">
        <ele>88.1</ele>
        <time>2012-04-17T13:56:29Z</time>
      </trkpt>
      <trkpt lat="44.95159" lon="0.08684">
        <ele>87.62</ele>
        <time>2012-04-17T13:56:40Z</time>
      </trkpt>
      <trkpt lat="44.95145" lon="0.08686">
        <ele>87.14</ele>
        <time>2012-04-17T13:56:51Z</time>
      </trkpt>
      <trkpt lat="44.9513" lon="0.08685">
        <ele>87.62</ele>
        <time>2012-04-17T13:57:04Z</time>
      </trkpt>
      <trkpt lat="44.95114" lon="0.08685">
        <ele>87.14</ele>
        <time>2012-04-17T13:57:16Z</time>
      </trkpt>
      <trkpt lat="44.95101" lon="0.08684">
        <ele>87.62</ele>
        <time>2012-04-17T13:57:26Z</time>
      </trkpt>
      <trkpt lat="44.9509" lon="0.08682">
        <ele>87.14</ele>
        <time>2012-04-17T13:57:36Z</time>
      </trkpt>
      <trkpt lat="44.95075" lon="0.08682">
        <ele>87.14</ele>
        <time>2012-04-17T13:57:47Z</time>
      </trkpt>
      <trkpt lat="44.95061" lon="0.08681">
        <ele>87.14</ele>
        <time>2012-04-17T13:57:57Z</time>
      </trkpt>
      <trkpt lat="44.95048" lon="0.08681">
        <ele>87.62</ele>
        <time>2012-04-17T13:58:08Z</time>
      </trkpt>
      <trkpt lat="44.95024" lon="0.08681">
        <ele>87.62</ele>
        <time>2012-04-17T13:58:24Z</time>
      </trkpt>
      <trkpt lat="44.95005" lon="0.08682">
        <ele>88.58</ele>
        <time>2012-04-17T13:58:36Z</time>
      </trkpt>
      <trkpt lat="44.94988" lon="0.08682">
        <ele>88.58</ele>
        <time>2012-04-17T13:58:48Z</time>
      </trkpt>
      <trkpt lat="44.94979" lon="0.08683">
        <ele>89.06</ele>
        <time>2012-04-17T13:58:55Z</time>
      </trkpt>
      <trkpt lat="44.94958" lon="0.08685">
        <ele>90.02</ele>
        <time>2012-04-17T13:59:08Z</time>
      </trkpt>
      <trkpt lat="44.94946" lon="0.08687">
        <ele>91.94</ele>
        <time>2012-04-17T13:59:17Z</time>
      </trkpt>
      <trkpt lat="44.9494" lon="0.08687">
        <ele>92.9</ele>
        <time>2012-04-17T13:59:28Z</time>
      </trkpt>
      <trkpt lat="44.94922" lon="0.08684">
        <ele>92.9</ele>
        <time>2012-04-17T13:59:43Z</time>
      </trkpt>
      <trkpt lat="44.94902" lon="0.08681">
        <ele>94.35</ele>
        <time>2012-04-17T13:59:56Z</time>
      </trkpt>
      <trkpt lat="44.94887" lon="0.08679">
        <ele>94.35</ele>
        <time>2012-04-17T14:00:06Z</time>
      </trkpt>
      <trkpt lat="44.9487" lon="0.08675">
        <ele>94.83</ele>
        <time>2012-04-17T14:00:19Z</time>
      </trkpt>
      <trkpt lat="44.94857" lon="0.08678">
        <ele>94.83</ele>
        <time>2012-04-17T14:00:31Z</time>
      </trkpt>
      <trkpt lat="44.94848" lon="0.08683">
        <ele>94.35</ele>
        <time>2012-04-17T14:00:38Z</time>
      </trkpt>
      <trkpt lat="44.94834" lon="0.08695">
        <ele>92.9</ele>
        <time>2012-04-17T14:00:50Z</time>
      </trkpt>
      <trkpt lat="44.94819" lon="0.08707">
        <ele>91.94</ele>
        <time>2012-04-17T14:01:02Z</time>
      </trkpt>
      <trkpt lat="44.94804" lon="0.08711">
        <ele>91.46</ele>
        <time>2012-04-17T14:01:13Z</time>
      </trkpt>
      <trkpt lat="44.9479" lon="0.08714">
        <ele>90.98</ele>
        <time>2012-04-17T14:01:33Z</time>
      </trkpt>
      <trkpt lat="44.94776" lon="0.08721">
        <ele>90.02</ele>
        <time>2012-04-17T14:01:44Z</time>
      </trkpt>
      <trkpt lat="44.94761" lon="0.08727">
        <ele>90.98</ele>
        <time>2012-04-17T14:01:56Z</time>
      </trkpt>
      <trkpt lat="44.94742" lon="0.08736">
        <ele>91.46</ele>
        <time>2012-04-17T14:02:09Z</time>
      </trkpt>
      <trkpt lat="44.94721" lon="0.08746">
        <ele>91.94</ele>
        <time>2012-04-17T14:02:24Z</time>
      </trkpt>
      <trkpt lat="44.94701" lon="0.08756">
        <ele>90.98</ele>
        <time>2012-04-17T14:02:38Z</time>
      </trkpt>
      <trkpt lat="44.94681" lon="0.08767">
        <ele>91.46</ele>
        <time>2012-04-17T14:02:53Z</time>
      </trkpt>
      <trkpt lat="44.94665" lon="0.08776">
        <ele>92.42</ele>
        <time>2012-04-17T14:03:07Z</time>
      </trkpt>
      <trkpt lat="44.94651" lon="0.08785">
        <ele>91.94</ele>
        <time>2012-04-17T14:03:19Z</time>
      </trkpt>
      <trkpt lat="44.94639" lon="0.08796">
        <ele>92.42</ele>
        <time>2012-04-17T14:03:31Z</time>
      </trkpt>
      <trkpt lat="44.94629" lon="0.08816">
        <ele>91.94</ele>
        <time>2012-04-17T14:03:47Z</time>
      </trkpt>
      <trkpt lat="44.94629" lon="0.08829">
        <ele>92.42</ele>
        <time>2012-04-17T14:03:58Z</time>
      </trkpt>
      <trkpt lat="44.94634" lon="0.08845">
        <ele>92.42</ele>
        <time>2012-04-17T14:04:08Z</time>
      </trkpt>
      <trkpt lat="44.94639" lon="0.08861">
        <ele>94.35</ele>
        <time>2012-04-17T14:04:20Z</time>
      </trkpt>
      <trkpt lat="44.94643" lon="0.08881">
        <ele>95.31</ele>
        <time>2012-04-17T14:04:33Z</time>
      </trkpt>
      <trkpt lat="44.9464" lon="0.08892">
        <ele>95.79</ele>
        <time>2012-04-17T14:04:44Z</time>
      </trkpt>
      <trkpt lat="44.94639" lon="0.089">
        <ele>96.75</ele>
        <time>2012-04-17T14:04:54Z</time>
      </trkpt>
      <trkpt lat="44.94637" lon="0.08908">
        <ele>97.23</ele>
        <time>2012-04-17T14:05:00Z</time>
      </trkpt>
      <trkpt lat="44.94645" lon="0.08926">
        <ele>97.71</ele>
        <time>2012-04-17T14:05:25Z</time>
      </trkpt>
      <trkpt lat="44.94648" lon="0.08934">
        <ele>98.19</ele>
        <time>2012-04-17T14:05:30Z</time>
      </trkpt>
      <trkpt lat="44.94652" lon="0.08942">
        <ele>99.63</ele>
        <time>2012-04-17T14:05:39Z</time>
      </trkpt>
      <trkpt lat="44.94657" lon="0.08952">
        <ele>101.08</ele>
        <time>2012-04-17T14:05:47Z</time>
      </trkpt>
      <trkpt lat="44.9466" lon="0.08961">
        <ele>101.56</ele>
        <time>2012-04-17T14:05:53Z</time>
      </trkpt>
      <trkpt lat="44.94665" lon="0.08972">
        <ele>103</ele>
        <time>2012-04-17T14:06:03Z</time>
      </trkpt>
      <trkpt lat="44.94667" lon="0.08979">
        <ele>104.44</ele>
        <time>2012-04-17T14:06:08Z</time>
      </trkpt>
      <trkpt lat="44.94669" lon="0.08988">
        <ele>105.4</ele>
        <time>2012-04-17T14:06:14Z</time>
      </trkpt>
      <trkpt lat="44.94672" lon="0.08998">
        <ele>106.84</ele>
        <time>2012-04-17T14:06:22Z</time>
      </trkpt>
      <trkpt lat="44.94673" lon="0.09013">
        <ele>108.77</ele>
        <time>2012-04-17T14:06:35Z</time>
      </trkpt>
      <trkpt lat="44.94667" lon="0.09024">
        <ele>108.77</ele>
        <time>2012-04-17T14:06:54Z</time>
      </trkpt>
      <trkpt lat="44.94661" lon="0.09033">
        <ele>109.25</ele>
        <time>2012-04-17T14:07:15Z</time>
      </trkpt>
      <trkpt lat="44.94649" lon="0.0905">
        <ele>109.25</ele>
        <time>2012-04-17T14:07:32Z</time>
      </trkpt>
      <trkpt lat="44.94639" lon="0.09074">
        <ele>109.25</ele>
        <time>2012-04-17T14:07:43Z</time>
      </trkpt>
      <trkpt lat="44.94631" lon="0.09094">
        <ele>111.17</ele>
        <time>2012-04-17T14:07:53Z</time>
      </trkpt>
      <trkpt lat="44.94633" lon="0.09107">
        <ele>109.73</ele>
        <time>2012-04-17T14:08:57Z</time>
      </trkpt>
      <trkpt lat="44.94639" lon="0.09107">
        <ele>109.73</ele>
        <time>2012-04-17T14:09:08Z</time>
      </trkpt>
    </trkseg>
  </trk>
</gpx>